Kansai — JD3272 — position and weather

sailwx.info

Track history (hours):
 
Tides and Currents Weather Stations Pressure Air Temp Water Temp Dewpoint Dewpoint Depression Visibility Wind Speed Wind Dir Waves Ship Positions

Kansai

Last reported at 2017-Oct-14 16:02 UTC. Time now 2017-Oct-19 05:55 UTC.
Position N 35°35' E 139°56'.

Length 73 m; draft 4.2 m.

Type: Cargo ship. MMSI: 431003134.

Date/timePositionNaut miles runAvg speedWind from/ knotsBaromVisibWave heightAir tempDewpointWater temp
2017-Oct-14 16:02N 35°35' E 139°56'111.0
2017-Oct-14 15:55N 35°34' E 139°56'410.6
2017-Oct-14 15:30N 35°30' E 139°53'510.4
2017-Oct-14 15:00N 35°26' E 139°48'510.4
2017-Oct-14 14:30N 35°22' E 139°45'5 9.3
2017-Oct-14 14:00N 35°17' E 139°46'5 9.6
2017-Oct-14 13:30N 35°12' E 139°47'5 9.8
2017-Oct-14 13:00N 35°08' E 139°45'5 9.9
2017-Oct-14 12:30N 35°03' E 139°42'510.8
2017-Oct-14 12:00N 34°60' E 139°37'236 9.1
2017-Oct-13 10:08N 34°02' E 134°59'211.7
2017-Oct-13 09:59N 34°04' E 134°60'611.5
2017-Oct-13 09:29N 34°09' E 134°59'1810.9
2017-Oct-13 07:51N 34°27' E 135°01'411.0
2017-Oct-13 07:29N 34°31' E 135°02'510.2
2017-Oct-13 07:00N 34°36' E 135°03'13 0.5
2017-Oct-12 06:14N 34°41' E 134°49'16 0.5
2017-Oct-11 00:00N 34°30' E 135°03'  
2017-Oct-08 04:47N 33°59' E 135°01'311.2
2017-Oct-08 04:30N 34°02' E 135°00'911.2
2017-Oct-08 03:44N 34°11' E 134°59'1610.1
2017-Oct-08 02:07N 34°27' E 135°01'110.0
2017-Oct-08 02:00N 34°28' E 135°01'5 9.4
2017-Oct-08 01:30N 34°33' E 135°03'4 6.9
2017-Oct-08 00:59N 34°36' E 135°03'12 7.0
2017-Oct-07 23:20N 34°40' E 134°49'  
Track history (hours):
 
Tides and Currents Weather Stations Pressure Air Temp Water Temp Dewpoint Dewpoint Depression Visibility Wind Speed Wind Dir Waves Ship Positions

Kansai

Last reported at 2017-Oct-14 16:02 UTC. Time now 2017-Oct-19 05:55 UTC.
Position N 35°35' E 139°56'.

Length 73 m; draft 4.2 m.

Type: Cargo ship. MMSI: 431003134.

Date/timePositionNaut miles runAvg speedWind from/ knotsBaromVisibWave heightAir tempDewpointWater temp
2017-Oct-14 16:02N 35°35' E 139°56'111.0
2017-Oct-14 15:55N 35°34' E 139°56'410.6
2017-Oct-14 15:30N 35°30' E 139°53'510.4
2017-Oct-14 15:00N 35°26' E 139°48'510.4
2017-Oct-14 14:30N 35°22' E 139°45'5 9.3
2017-Oct-14 14:00N 35°17' E 139°46'5 9.6
2017-Oct-14 13:30N 35°12' E 139°47'5 9.8
2017-Oct-14 13:00N 35°08' E 139°45'5 9.9
2017-Oct-14 12:30N 35°03' E 139°42'510.8
2017-Oct-14 12:00N 34°60' E 139°37'236 9.1
2017-Oct-13 10:08N 34°02' E 134°59'211.7
2017-Oct-13 09:59N 34°04' E 134°60'611.5
2017-Oct-13 09:29N 34°09' E 134°59'1810.9
2017-Oct-13 07:51N 34°27' E 135°01'411.0
2017-Oct-13 07:29N 34°31' E 135°02'510.2
2017-Oct-13 07:00N 34°36' E 135°03'13 0.5
2017-Oct-12 06:14N 34°41' E 134°49'16 0.5
2017-Oct-11 00:00N 34°30' E 135°03'  
2017-Oct-08 04:47N 33°59' E 135°01'311.2
2017-Oct-08 04:30N 34°02' E 135°00'911.2
2017-Oct-08 03:44N 34°11' E 134°59'1610.1
2017-Oct-08 02:07N 34°27' E 135°01'110.0
2017-Oct-08 02:00N 34°28' E 135°01'5 9.4
2017-Oct-08 01:30N 34°33' E 135°03'4 6.9
2017-Oct-08 00:59N 34°36' E 135°03'12 7.0
2017-Oct-07 23:20N 34°40' E 134°49'  

Dump ship's entire track history